sensor_id;sensor_type;location;lat;lon;timestamp;P1;durP1;ratioP1;P2;durP2;ratioP2
8791;SDS011;4432;50.890;4.744;2023-03-23T00:01:20;2.50;;;2.23;;
8791;SDS011;4432;50.890;4.744;2023-03-23T00:03:50;2.27;;;2.10;;
8791;SDS011;4432;50.890;4.744;2023-03-23T00:06:19;3.77;;;2.20;;
8791;SDS011;4432;50.890;4.744;2023-03-23T00:08:50;3.50;;;2.47;;
8791;SDS011;4432;50.890;4.744;2023-03-23T00:11:22;3.23;;;2.00;;
8791;SDS011;4432;50.890;4.744;2023-03-23T00:13:51;3.53;;;2.43;;
8791;SDS011;4432;50.890;4.744;2023-03-23T00:16:18;2.37;;;2.03;;
8791;SDS011;4432;50.890;4.744;2023-03-23T00:18:50;3.17;;;2.20;;
8791;SDS011;4432;50.890;4.744;2023-03-23T00:21:19;4.50;;;2.37;;
8791;SDS011;4432;50.890;4.744;2023-03-23T00:23:50;2.20;;;2.00;;
8791;SDS011;4432;50.890;4.744;2023-03-23T00:26:17;2.40;;;2.00;;
8791;SDS011;4432;50.890;4.744;2023-03-23T00:28:43;2.27;;;2.07;;
8791;SDS011;4432;50.890;4.744;2023-03-23T00:31:11;2.63;;;1.97;;
8791;SDS011;4432;50.890;4.744;2023-03-23T00:33:38;2.70;;;2.33;;
8791;SDS011;4432;50.890;4.744;2023-03-23T00:36:09;2.43;;;2.20;;
8791;SDS011;4432;50.890;4.744;2023-03-23T00:38:36;2.13;;;1.90;;
8791;SDS011;4432;50.890;4.744;2023-03-23T00:41:03;2.60;;;2.33;;
8791;SDS011;4432;50.890;4.744;2023-03-23T00:43:29;2.70;;;2.03;;
8791;SDS011;4432;50.890;4.744;2023-03-23T00:45:56;3.07;;;2.17;;
8791;SDS011;4432;50.890;4.744;2023-03-23T00:48:26;2.83;;;2.17;;
8791;SDS011;4432;50.890;4.744;2023-03-23T00:50:52;3.37;;;2.40;;
8791;SDS011;4432;50.890;4.744;2023-03-23T00:53:19;2.57;;;1.83;;
8791;SDS011;4432;50.890;4.744;2023-03-23T00:55:45;2.87;;;1.97;;
8791;SDS011;4432;50.890;4.744;2023-03-23T00:58:12;1.97;;;1.83;;
8791;SDS011;4432;50.890;4.744;2023-03-23T01:00:39;3.13;;;2.20;;
8791;SDS011;4432;50.890;4.744;2023-03-23T01:03:06;3.07;;;2.10;;
8791;SDS011;4432;50.890;4.744;2023-03-23T01:05:35;3.23;;;2.20;;
8791;SDS011;4432;50.890;4.744;2023-03-23T01:08:03;1.80;;;1.70;;
8791;SDS011;4432;50.890;4.744;2023-03-23T01:10:30;2.40;;;2.10;;
8791;SDS011;4432;50.890;4.744;2023-03-23T01:12:58;2.77;;;2.00;;
8791;SDS011;4432;50.890;4.744;2023-03-23T01:15:26;2.67;;;2.03;;
8791;SDS011;4432;50.890;4.744;2023-03-23T01:17:53;3.03;;;2.00;;
8791;SDS011;4432;50.890;4.744;2023-03-23T01:20:19;2.20;;;2.00;;
8791;SDS011;4432;50.890;4.744;2023-03-23T01:22:45;6.57;;;1.80;;
8791;SDS011;4432;50.890;4.744;2023-03-23T01:25:12;2.07;;;1.87;;
8791;SDS011;4432;50.890;4.744;2023-03-23T01:27:39;2.33;;;2.10;;
8791;SDS011;4432;50.890;4.744;2023-03-23T01:30:06;1.93;;;1.83;;
8791;SDS011;4432;50.890;4.744;2023-03-23T01:32:35;2.60;;;1.90;;
8791;SDS011;4432;50.890;4.744;2023-03-23T01:35:01;2.20;;;2.00;;
8791;SDS011;4432;50.890;4.744;2023-03-23T01:37:26;1.90;;;1.80;;
8791;SDS011;4432;50.890;4.744;2023-03-23T01:39:53;1.90;;;1.80;;
8791;SDS011;4432;50.890;4.744;2023-03-23T01:42:26;2.03;;;1.67;;
8791;SDS011;4432;50.890;4.744;2023-03-23T01:45:17;4.23;;;2.33;;
8791;SDS011;4432;50.890;4.744;2023-03-23T01:47:48;4.73;;;2.10;;
8791;SDS011;4432;50.890;4.744;2023-03-23T01:50:21;2.00;;;1.90;;
8791;SDS011;4432;50.890;4.744;2023-03-23T01:52:49;2.30;;;1.60;;
8791;SDS011;4432;50.890;4.744;2023-03-23T01:55:18;1.80;;;1.70;;
8791;SDS011;4432;50.890;4.744;2023-03-23T01:57:44;3.70;;;2.00;;
8791;SDS011;4432;50.890;4.744;2023-03-23T02:00:11;1.80;;;1.67;;
8791;SDS011;4432;50.890;4.744;2023-03-23T02:02:40;2.43;;;2.03;;
8791;SDS011;4432;50.890;4.744;2023-03-23T02:05:09;2.27;;;2.07;;
8791;SDS011;4432;50.890;4.744;2023-03-23T02:07:38;3.13;;;2.00;;
8791;SDS011;4432;50.890;4.744;2023-03-23T02:10:04;2.77;;;2.10;;
8791;SDS011;4432;50.890;4.744;2023-03-23T02:12:30;2.00;;;1.80;;
8791;SDS011;4432;50.890;4.744;2023-03-23T02:14:57;3.10;;;2.10;;
8791;SDS011;4432;50.890;4.744;2023-03-23T02:26:03;1.67;;;1.57;;
8791;SDS011;4432;50.890;4.744;2023-03-23T02:31:43;2.23;;;1.93;;
8791;SDS011;4432;50.890;4.744;2023-03-23T02:34:44;2.57;;;1.60;;
8791;SDS011;4432;50.890;4.744;2023-03-23T02:37:32;1.77;;;1.50;;
8791;SDS011;4432;50.890;4.744;2023-03-23T02:40:02;1.97;;;1.80;;
8791;SDS011;4432;50.890;4.744;2023-03-23T02:42:43;1.77;;;1.60;;
8791;SDS011;4432;50.890;4.744;2023-03-23T02:45:12;4.37;;;2.00;;
8791;SDS011;4432;50.890;4.744;2023-03-23T02:47:40;3.33;;;2.00;;
8791;SDS011;4432;50.890;4.744;2023-03-23T02:50:08;2.87;;;1.90;;
8791;SDS011;4432;50.890;4.744;2023-03-23T02:52:40;2.03;;;1.70;;
8791;SDS011;4432;50.890;4.744;2023-03-23T02:55:07;1.90;;;1.47;;
8791;SDS011;4432;50.890;4.744;2023-03-23T02:57:36;3.83;;;1.60;;
8791;SDS011;4432;50.890;4.744;2023-03-23T03:00:07;2.93;;;1.97;;
8791;SDS011;4432;50.890;4.744;2023-03-23T03:02:40;1.87;;;1.77;;
8791;SDS011;4432;50.890;4.744;2023-03-23T03:16:37;4.57;;;1.70;;
8791;SDS011;4432;50.890;4.744;2023-03-23T03:21:46;1.70;;;1.40;;
8791;SDS011;4432;50.890;4.744;2023-03-23T03:24:14;1.53;;;1.43;;
8791;SDS011;4432;50.890;4.744;2023-03-23T03:26:42;1.73;;;1.60;;
8791;SDS011;4432;50.890;4.744;2023-03-23T03:29:13;1.83;;;1.53;;
8791;SDS011;4432;50.890;4.744;2023-03-23T03:31:42;4.93;;;1.57;;
8791;SDS011;4432;50.890;4.744;2023-03-23T03:34:13;1.57;;;1.33;;
8791;SDS011;4432;50.890;4.744;2023-03-23T03:36:43;4.03;;;1.50;;
8791;SDS011;4432;50.890;4.744;2023-03-23T03:39:12;1.50;;;1.40;;
8791;SDS011;4432;50.890;4.744;2023-03-23T03:41:40;3.67;;;1.40;;
8791;SDS011;4432;50.890;4.744;2023-03-23T03:44:06;2.00;;;1.80;;
8791;SDS011;4432;50.890;4.744;2023-03-23T03:46:36;2.07;;;1.87;;
8791;SDS011;4432;50.890;4.744;2023-03-23T03:49:06;4.37;;;1.50;;
8791;SDS011;4432;50.890;4.744;2023-03-23T03:51:34;4.10;;;1.80;;
8791;SDS011;4432;50.890;4.744;2023-03-23T03:54:00;2.13;;;1.57;;
8791;SDS011;4432;50.890;4.744;2023-03-23T03:56:27;2.47;;;1.60;;
8791;SDS011;4432;50.890;4.744;2023-03-23T03:58:52;1.53;;;1.43;;
8791;SDS011;4432;50.890;4.744;2023-03-23T04:01:19;3.90;;;1.80;;
8791;SDS011;4432;50.890;4.744;2023-03-23T04:03:47;4.60;;;1.90;;
8791;SDS011;4432;50.890;4.744;2023-03-23T04:06:14;3.13;;;1.70;;
8791;SDS011;4432;50.890;4.744;2023-03-23T04:08:40;2.20;;;1.60;;
8791;SDS011;4432;50.890;4.744;2023-03-23T04:11:08;1.60;;;1.50;;
8791;SDS011;4432;50.890;4.744;2023-03-23T04:13:35;1.57;;;1.40;;
8791;SDS011;4432;50.890;4.744;2023-03-23T04:16:01;1.50;;;1.40;;
8791;SDS011;4432;50.890;4.744;2023-03-23T04:18:28;1.60;;;1.50;;
8791;SDS011;4432;50.890;4.744;2023-03-23T04:20:57;2.47;;;1.60;;
8791;SDS011;4432;50.890;4.744;2023-03-23T04:23:25;3.87;;;1.70;;
8791;SDS011;4432;50.890;4.744;2023-03-23T04:25:51;2.70;;;1.50;;
8791;SDS011;4432;50.890;4.744;2023-03-23T04:28:21;1.60;;;1.43;;
8791;SDS011;4432;50.890;4.744;2023-03-23T04:30:49;2.10;;;1.53;;
8791;SDS011;4432;50.890;4.744;2023-03-23T04:33:27;6.83;;;1.70;;
8791;SDS011;4432;50.890;4.744;2023-03-23T04:35:55;2.87;;;1.43;;
8791;SDS011;4432;50.890;4.744;2023-03-23T04:38:26;2.00;;;1.30;;
8791;SDS011;4432;50.890;4.744;2023-03-23T04:40:53;4.60;;;1.30;;
8791;SDS011;4432;50.890;4.744;2023-03-23T04:43:20;2.03;;;1.50;;
8791;SDS011;4432;50.890;4.744;2023-03-23T04:45:52;6.67;;;1.80;;
8791;SDS011;4432;50.890;4.744;2023-03-23T04:48:23;1.30;;;1.20;;
8791;SDS011;4432;50.890;4.744;2023-03-23T04:50:49;2.97;;;1.50;;
8791;SDS011;4432;50.890;4.744;2023-03-23T04:53:15;1.90;;;1.20;;
8791;SDS011;4432;50.890;4.744;2023-03-23T04:55:42;2.37;;;1.37;;
8791;SDS011;4432;50.890;4.744;2023-03-23T04:58:09;4.37;;;1.40;;
8791;SDS011;4432;50.890;4.744;2023-03-23T05:00:37;4.10;;;1.40;;
8791;SDS011;4432;50.890;4.744;2023-03-23T05:03:03;3.37;;;1.37;;
8791;SDS011;4432;50.890;4.744;2023-03-23T05:05:29;1.70;;;1.30;;
8791;SDS011;4432;50.890;4.744;2023-03-23T05:07:55;2.57;;;1.17;;
8791;SDS011;4432;50.890;4.744;2023-03-23T05:10:21;2.03;;;1.23;;
8791;SDS011;4432;50.890;4.744;2023-03-23T05:12:48;4.27;;;1.20;;
8791;SDS011;4432;50.890;4.744;2023-03-23T05:15:14;4.00;;;1.23;;
8791;SDS011;4432;50.890;4.744;2023-03-23T05:17:40;1.40;;;0.90;;
8791;SDS011;4432;50.890;4.744;2023-03-23T05:20:10;1.30;;;1.17;;
8791;SDS011;4432;50.890;4.744;2023-03-23T05:22:37;4.70;;;1.13;;
8791;SDS011;4432;50.890;4.744;2023-03-23T05:25:04;2.73;;;1.40;;
8791;SDS011;4432;50.890;4.744;2023-03-23T05:27:31;5.90;;;1.37;;
8791;SDS011;4432;50.890;4.744;2023-03-23T05:29:57;3.80;;;1.20;;
8791;SDS011;4432;50.890;4.744;2023-03-23T05:32:25;2.67;;;1.10;;
8791;SDS011;4432;50.890;4.744;2023-03-23T05:34:55;4.13;;;0.90;;
8791;SDS011;4432;50.890;4.744;2023-03-23T05:37:22;0.80;;;0.80;;
8791;SDS011;4432;50.890;4.744;2023-03-23T05:39:48;1.07;;;0.97;;
8791;SDS011;4432;50.890;4.744;2023-03-23T05:42:14;4.23;;;1.17;;
8791;SDS011;4432;50.890;4.744;2023-03-23T05:44:39;2.60;;;1.10;;
8791;SDS011;4432;50.890;4.744;2023-03-23T05:47:05;2.63;;;1.07;;
8791;SDS011;4432;50.890;4.744;2023-03-23T05:49:31;1.53;;;1.20;;
8791;SDS011;4432;50.890;4.744;2023-03-23T05:51:57;1.00;;;1.00;;
8791;SDS011;4432;50.890;4.744;2023-03-23T05:54:23;3.40;;;1.37;;
8791;SDS011;4432;50.890;4.744;2023-03-23T05:56:50;1.23;;;1.07;;
8791;SDS011;4432;50.890;4.744;2023-03-23T05:59:16;1.30;;;1.20;;
8791;SDS011;4432;50.890;4.744;2023-03-23T06:01:42;2.40;;;1.40;;
8791;SDS011;4432;50.890;4.744;2023-03-23T06:04:07;1.30;;;1.20;;
8791;SDS011;4432;50.890;4.744;2023-03-23T06:06:34;2.37;;;1.00;;
8791;SDS011;4432;50.890;4.744;2023-03-23T06:09:01;2.83;;;1.17;;
8791;SDS011;4432;50.890;4.744;2023-03-23T06:11:28;1.73;;;1.27;;
8791;SDS011;4432;50.890;4.744;2023-03-23T06:13:54;1.73;;;1.20;;
8791;SDS011;4432;50.890;4.744;2023-03-23T06:16:19;1.13;;;1.00;;
8791;SDS011;4432;50.890;4.744;2023-03-23T06:18:45;1.10;;;1.10;;
8791;SDS011;4432;50.890;4.744;2023-03-23T06:21:11;1.80;;;1.00;;
8791;SDS011;4432;50.890;4.744;2023-03-23T06:23:38;1.37;;;1.10;;
8791;SDS011;4432;50.890;4.744;2023-03-23T06:26:05;1.40;;;1.10;;
8791;SDS011;4432;50.890;4.744;2023-03-23T06:28:33;1.70;;;1.17;;
8791;SDS011;4432;50.890;4.744;2023-03-23T06:31:00;2.50;;;1.43;;
8791;SDS011;4432;50.890;4.744;2023-03-23T06:33:29;1.10;;;1.10;;
8791;SDS011;4432;50.890;4.744;2023-03-23T06:35:55;7.60;;;1.30;;
8791;SDS011;4432;50.890;4.744;2023-03-23T06:38:22;2.47;;;1.20;;
8791;SDS011;4432;50.890;4.744;2023-03-23T06:40:51;1.77;;;1.10;;
8791;SDS011;4432;50.890;4.744;2023-03-23T06:43:17;2.07;;;1.30;;
8791;SDS011;4432;50.890;4.744;2023-03-23T06:45:43;1.20;;;1.10;;
8791;SDS011;4432;50.890;4.744;2023-03-23T06:48:09;1.40;;;1.30;;
8791;SDS011;4432;50.890;4.744;2023-03-23T06:50:34;3.83;;;1.20;;
8791;SDS011;4432;50.890;4.744;2023-03-23T06:53:00;3.67;;;1.90;;
8791;SDS011;4432;50.890;4.744;2023-03-23T06:55:27;2.47;;;1.30;;
8791;SDS011;4432;50.890;4.744;2023-03-23T06:57:52;2.00;;;1.30;;
8791;SDS011;4432;50.890;4.744;2023-03-23T07:00:18;1.57;;;1.10;;
8791;SDS011;4432;50.890;4.744;2023-03-23T07:02:44;3.57;;;1.40;;
8791;SDS011;4432;50.890;4.744;2023-03-23T07:05:10;2.43;;;1.47;;
8791;SDS011;4432;50.890;4.744;2023-03-23T07:07:37;5.07;;;1.50;;
8791;SDS011;4432;50.890;4.744;2023-03-23T07:10:05;3.10;;;1.00;;
8791;SDS011;4432;50.890;4.744;2023-03-23T07:12:33;2.47;;;1.20;;
8791;SDS011;4432;50.890;4.744;2023-03-23T07:15:01;4.67;;;1.33;;
8791;SDS011;4432;50.890;4.744;2023-03-23T07:17:28;1.23;;;1.00;;
8791;SDS011;4432;50.890;4.744;2023-03-23T07:19:53;1.57;;;1.47;;
8791;SDS011;4432;50.890;4.744;2023-03-23T07:22:19;4.10;;;1.27;;
8791;SDS011;4432;50.890;4.744;2023-03-23T07:24:46;3.83;;;1.07;;
8791;SDS011;4432;50.890;4.744;2023-03-23T07:27:11;3.43;;;1.27;;
8791;SDS011;4432;50.890;4.744;2023-03-23T07:29:38;5.90;;;1.30;;
8791;SDS011;4432;50.890;4.744;2023-03-23T07:32:05;2.30;;;1.30;;
8791;SDS011;4432;50.890;4.744;2023-03-23T07:34:32;2.77;;;1.23;;
8791;SDS011;4432;50.890;4.744;2023-03-23T07:36:58;5.63;;;1.30;;
8791;SDS011;4432;50.890;4.744;2023-03-23T07:39:24;4.03;;;0.90;;
8791;SDS011;4432;50.890;4.744;2023-03-23T07:41:51;0.53;;;0.53;;
8791;SDS011;4432;50.890;4.744;2023-03-23T07:44:17;0.60;;;0.60;;
8791;SDS011;4432;50.890;4.744;2023-03-23T07:46:43;1.17;;;0.80;;
8791;SDS011;4432;50.890;4.744;2023-03-23T07:49:09;1.30;;;0.73;;
8791;SDS011;4432;50.890;4.744;2023-03-23T07:51:35;2.00;;;0.90;;
8791;SDS011;4432;50.890;4.744;2023-03-23T07:54:03;0.60;;;0.60;;
8791;SDS011;4432;50.890;4.744;2023-03-23T07:56:30;1.27;;;0.80;;
8791;SDS011;4432;50.890;4.744;2023-03-23T07:58:56;0.50;;;0.50;;
8791;SDS011;4432;50.890;4.744;2023-03-23T08:01:22;0.50;;;0.50;;
8791;SDS011;4432;50.890;4.744;2023-03-23T08:03:49;1.03;;;0.80;;
8791;SDS011;4432;50.890;4.744;2023-03-23T08:06:15;4.07;;;0.83;;
8791;SDS011;4432;50.890;4.744;2023-03-23T08:08:41;1.53;;;0.93;;
8791;SDS011;4432;50.890;4.744;2023-03-23T08:11:07;1.00;;;1.00;;
8791;SDS011;4432;50.890;4.744;2023-03-23T08:13:32;5.10;;;1.20;;
8791;SDS011;4432;50.890;4.744;2023-03-23T08:15:59;0.83;;;0.83;;
8791;SDS011;4432;50.890;4.744;2023-03-23T08:18:29;1.00;;;1.00;;
8791;SDS011;4432;50.890;4.744;2023-03-23T08:20:55;1.27;;;1.20;;
8791;SDS011;4432;50.890;4.744;2023-03-23T08:23:21;1.93;;;1.03;;
8791;SDS011;4432;50.890;4.744;2023-03-23T08:25:47;2.17;;;1.23;;
8791;SDS011;4432;50.890;4.744;2023-03-23T08:28:13;2.23;;;1.07;;
8791;SDS011;4432;50.890;4.744;2023-03-23T08:30:39;0.80;;;0.80;;
8791;SDS011;4432;50.890;4.744;2023-03-23T08:33:07;1.57;;;1.20;;
8791;SDS011;4432;50.890;4.744;2023-03-23T08:35:35;2.07;;;1.20;;
8791;SDS011;4432;50.890;4.744;2023-03-23T08:38:01;2.63;;;1.13;;
8791;SDS011;4432;50.890;4.744;2023-03-23T08:40:28;1.53;;;1.07;;
8791;SDS011;4432;50.890;4.744;2023-03-23T08:42:54;1.33;;;0.97;;
8791;SDS011;4432;50.890;4.744;2023-03-23T08:45:21;2.20;;;1.23;;
8791;SDS011;4432;50.890;4.744;2023-03-23T08:47:49;2.23;;;0.90;;
8791;SDS011;4432;50.890;4.744;2023-03-23T08:50:20;2.57;;;0.90;;
8791;SDS011;4432;50.890;4.744;2023-03-23T08:52:48;1.57;;;0.97;;
8791;SDS011;4432;50.890;4.744;2023-03-23T08:55:15;5.00;;;0.93;;
8791;SDS011;4432;50.890;4.744;2023-03-23T08:57:42;0.73;;;0.73;;
8791;SDS011;4432;50.890;4.744;2023-03-23T09:00:11;2.80;;;0.97;;
8791;SDS011;4432;50.890;4.744;2023-03-23T09:02:41;0.60;;;0.60;;
8791;SDS011;4432;50.890;4.744;2023-03-23T09:05:08;0.57;;;0.57;;
8791;SDS011;4432;50.890;4.744;2023-03-23T09:07:38;0.77;;;0.77;;
8791;SDS011;4432;50.890;4.744;2023-03-23T09:10:05;0.70;;;0.70;;
8791;SDS011;4432;50.890;4.744;2023-03-23T09:12:31;1.33;;;0.93;;
8791;SDS011;4432;50.890;4.744;2023-03-23T09:14:57;2.83;;;0.87;;
8791;SDS011;4432;50.890;4.744;2023-03-23T09:17:23;0.50;;;0.50;;
8791;SDS011;4432;50.890;4.744;2023-03-23T09:19:49;3.50;;;1.03;;
8791;SDS011;4432;50.890;4.744;2023-03-23T09:22:15;0.80;;;0.80;;
8791;SDS011;4432;50.890;4.744;2023-03-23T09:24:45;0.67;;;0.67;;
8791;SDS011;4432;50.890;4.744;2023-03-23T09:27:11;3.10;;;0.70;;
8791;SDS011;4432;50.890;4.744;2023-03-23T09:29:37;2.13;;;0.93;;
8791;SDS011;4432;50.890;4.744;2023-03-23T09:32:03;3.73;;;1.20;;
8791;SDS011;4432;50.890;4.744;2023-03-23T09:34:29;0.87;;;0.60;;
8791;SDS011;4432;50.890;4.744;2023-03-23T09:36:55;3.17;;;0.90;;
8791;SDS011;4432;50.890;4.744;2023-03-23T09:39:20;0.53;;;0.53;;
8791;SDS011;4432;50.890;4.744;2023-03-23T09:50:25;0.70;;;0.70;;
8791;SDS011;4432;50.890;4.744;2023-03-23T09:53:03;0.80;;;0.80;;
8791;SDS011;4432;50.890;4.744;2023-03-23T09:55:35;1.23;;;0.73;;
8791;SDS011;4432;50.890;4.744;2023-03-23T09:58:21;1.97;;;0.97;;
8791;SDS011;4432;50.890;4.744;2023-03-23T10:03:38;0.83;;;0.80;;
8791;SDS011;4432;50.890;4.744;2023-03-23T10:06:07;1.03;;;0.93;;
8791;SDS011;4432;50.890;4.744;2023-03-23T10:08:35;0.80;;;0.80;;
8791;SDS011;4432;50.890;4.744;2023-03-23T10:12:01;1.37;;;1.00;;
8791;SDS011;4432;50.890;4.744;2023-03-23T10:22:17;0.77;;;0.77;;
8791;SDS011;4432;50.890;4.744;2023-03-23T10:27:56;1.40;;;1.07;;
8791;SDS011;4432;50.890;4.744;2023-03-23T10:30:48;0.93;;;0.90;;
8791;SDS011;4432;50.890;4.744;2023-03-23T10:33:26;1.17;;;1.03;;
8791;SDS011;4432;50.890;4.744;2023-03-23T10:35:56;0.90;;;0.90;;
8791;SDS011;4432;50.890;4.744;2023-03-23T10:38:31;3.60;;;1.20;;
8791;SDS011;4432;50.890;4.744;2023-03-23T10:41:19;1.07;;;1.07;;
8791;SDS011;4432;50.890;4.744;2023-03-23T10:43:46;0.93;;;0.93;;
8791;SDS011;4432;50.890;4.744;2023-03-23T10:48:51;1.00;;;1.00;;
8791;SDS011;4432;50.890;4.744;2023-03-23T10:51:20;5.60;;;1.57;;
8791;SDS011;4432;50.890;4.744;2023-03-23T10:53:56;1.50;;;1.37;;
8791;SDS011;4432;50.890;4.744;2023-03-23T10:56:24;1.23;;;1.20;;
8791;SDS011;4432;50.890;4.744;2023-03-23T10:58:54;1.63;;;1.50;;
8791;SDS011;4432;50.890;4.744;2023-03-23T11:01:28;1.20;;;1.10;;
8791;SDS011;4432;50.890;4.744;2023-03-23T11:03:56;1.67;;;1.40;;
8791;SDS011;4432;50.890;4.744;2023-03-23T11:06:32;2.03;;;1.23;;
8791;SDS011;4432;50.890;4.744;2023-03-23T11:09:12;1.77;;;1.23;;
8791;SDS011;4432;50.890;4.744;2023-03-23T11:11:47;1.30;;;1.20;;
8791;SDS011;4432;50.890;4.744;2023-03-23T11:14:16;1.63;;;1.53;;
8791;SDS011;4432;50.890;4.744;2023-03-23T11:16:59;1.63;;;1.47;;
8791;SDS011;4432;50.890;4.744;2023-03-23T11:19:34;1.50;;;1.33;;
8791;SDS011;4432;50.890;4.744;2023-03-23T11:24:33;3.57;;;1.90;;
8791;SDS011;4432;50.890;4.744;2023-03-23T11:27:06;3.50;;;1.93;;
8791;SDS011;4432;50.890;4.744;2023-03-23T11:29:34;2.87;;;2.10;;
8791;SDS011;4432;50.890;4.744;2023-03-23T11:32:05;3.50;;;2.27;;
8791;SDS011;4432;50.890;4.744;2023-03-23T11:34:46;2.90;;;2.33;;
8791;SDS011;4432;50.890;4.744;2023-03-23T11:37:34;4.83;;;2.60;;
8791;SDS011;4432;50.890;4.744;2023-03-23T11:42:36;4.77;;;2.97;;
8791;SDS011;4432;50.890;4.744;2023-03-23T11:45:22;3.67;;;2.73;;
8791;SDS011;4432;50.890;4.744;2023-03-23T11:48:01;2.93;;;2.30;;
8791;SDS011;4432;50.890;4.744;2023-03-23T11:50:44;4.07;;;2.77;;
8791;SDS011;4432;50.890;4.744;2023-03-23T11:58:12;1.93;;;1.70;;
8791;SDS011;4432;50.890;4.744;2023-03-23T12:00:48;2.57;;;1.80;;
8791;SDS011;4432;50.890;4.744;2023-03-23T12:06:12;5.07;;;1.40;;
8791;SDS011;4432;50.890;4.744;2023-03-23T12:08:56;1.37;;;1.20;;
8791;SDS011;4432;50.890;4.744;2023-03-23T12:17:27;3.50;;;1.53;;
8791;SDS011;4432;50.890;4.744;2023-03-23T12:23:08;4.63;;;1.53;;
8791;SDS011;4432;50.890;4.744;2023-03-23T12:37:06;3.83;;;1.27;;
8791;SDS011;4432;50.890;4.744;2023-03-23T12:48:29;5.23;;;1.50;;
8791;SDS011;4432;50.890;4.744;2023-03-23T12:53:55;1.67;;;1.23;;
8791;SDS011;4432;50.890;4.744;2023-03-23T12:59:08;3.50;;;1.47;;
8791;SDS011;4432;50.890;4.744;2023-03-23T13:01:44;2.60;;;1.50;;
8791;SDS011;4432;50.890;4.744;2023-03-23T13:04:18;4.30;;;2.10;;
8791;SDS011;4432;50.890;4.744;2023-03-23T13:06:48;4.63;;;1.63;;
8791;SDS011;4432;50.890;4.744;2023-03-23T13:09:26;2.20;;;1.90;;
8791;SDS011;4432;50.890;4.744;2023-03-23T13:12:13;4.57;;;1.80;;
8791;SDS011;4432;50.890;4.744;2023-03-23T13:14:45;2.57;;;1.60;;
8791;SDS011;4432;50.890;4.744;2023-03-23T13:25:52;5.07;;;1.50;;
8791;SDS011;4432;50.890;4.744;2023-03-23T13:29:18;5.03;;;2.07;;
8791;SDS011;4432;50.890;4.744;2023-03-23T13:31:22;2.40;;;1.50;;
8791;SDS011;4432;50.890;4.744;2023-03-23T13:33:58;4.33;;;1.57;;
8791;SDS011;4432;50.890;4.744;2023-03-23T13:39:03;2.30;;;1.60;;
8791;SDS011;4432;50.890;4.744;2023-03-23T13:41:32;3.60;;;1.50;;
8791;SDS011;4432;50.890;4.744;2023-03-23T13:44:39;4.57;;;1.90;;
8791;SDS011;4432;50.890;4.744;2023-03-23T13:47:35;2.90;;;1.53;;
8791;SDS011;4432;50.890;4.744;2023-03-23T13:49:53;3.57;;;1.43;;
8791;SDS011;4432;50.890;4.744;2023-03-23T13:52:37;4.57;;;1.80;;
8791;SDS011;4432;50.890;4.744;2023-03-23T14:00:31;4.20;;;2.00;;
8791;SDS011;4432;50.890;4.744;2023-03-23T14:08:10;4.73;;;1.70;;
8791;SDS011;4432;50.890;4.744;2023-03-23T14:10:40;3.53;;;1.40;;
8791;SDS011;4432;50.890;4.744;2023-03-23T14:13:20;9.57;;;1.83;;
8791;SDS011;4432;50.890;4.744;2023-03-23T14:16:04;1.80;;;1.50;;
8791;SDS011;4432;50.890;4.744;2023-03-23T14:18:39;7.27;;;1.97;;
8791;SDS011;4432;50.890;4.744;2023-03-23T14:21:13;5.83;;;2.03;;
8791;SDS011;4432;50.890;4.744;2023-03-23T14:23:41;2.83;;;1.53;;
8791;SDS011;4432;50.890;4.744;2023-03-23T14:26:11;1.47;;;1.37;;
8791;SDS011;4432;50.890;4.744;2023-03-23T14:28:42;6.53;;;1.63;;
8791;SDS011;4432;50.890;4.744;2023-03-23T14:31:19;4.50;;;1.60;;
8791;SDS011;4432;50.890;4.744;2023-03-23T14:33:47;3.87;;;1.70;;
8791;SDS011;4432;50.890;4.744;2023-03-23T14:36:21;3.27;;;1.47;;
8791;SDS011;4432;50.890;4.744;2023-03-23T14:39:28;3.17;;;1.50;;
8791;SDS011;4432;50.890;4.744;2023-03-23T14:41:46;4.07;;;1.83;;
8791;SDS011;4432;50.890;4.744;2023-03-23T14:44:23;3.33;;;1.50;;
8791;SDS011;4432;50.890;4.744;2023-03-23T14:46:52;3.73;;;1.93;;
8791;SDS011;4432;50.890;4.744;2023-03-23T14:49:23;3.27;;;1.57;;
8791;SDS011;4432;50.890;4.744;2023-03-23T14:51:54;6.47;;;1.60;;
8791;SDS011;4432;50.890;4.744;2023-03-23T14:54:22;3.50;;;1.60;;
8791;SDS011;4432;50.890;4.744;2023-03-23T14:56:49;4.80;;;1.73;;
8791;SDS011;4432;50.890;4.744;2023-03-23T14:59:16;4.07;;;1.60;;
8791;SDS011;4432;50.890;4.744;2023-03-23T15:01:41;9.53;;;2.20;;
8791;SDS011;4432;50.890;4.744;2023-03-23T15:04:16;3.03;;;1.60;;
8791;SDS011;4432;50.890;4.744;2023-03-23T15:06:55;4.83;;;1.93;;
8791;SDS011;4432;50.890;4.744;2023-03-23T15:09:26;2.43;;;1.63;;
8791;SDS011;4432;50.890;4.744;2023-03-23T15:11:56;6.17;;;2.17;;
8791;SDS011;4432;50.890;4.744;2023-03-23T15:14:26;5.53;;;1.80;;
8791;SDS011;4432;50.890;4.744;2023-03-23T15:16:55;3.67;;;1.97;;
8791;SDS011;4432;50.890;4.744;2023-03-23T15:21:54;6.97;;;1.47;;
8791;SDS011;4432;50.890;4.744;2023-03-23T15:24:43;3.17;;;1.40;;
8791;SDS011;4432;50.890;4.744;2023-03-23T15:29:58;5.27;;;1.70;;
8791;SDS011;4432;50.890;4.744;2023-03-23T15:32:27;1.73;;;1.47;;
8791;SDS011;4432;50.890;4.744;2023-03-23T15:34:55;6.33;;;1.70;;
8791;SDS011;4432;50.890;4.744;2023-03-23T15:37:30;4.50;;;1.50;;
8791;SDS011;4432;50.890;4.744;2023-03-23T15:39:57;3.77;;;1.47;;
8791;SDS011;4432;50.890;4.744;2023-03-23T15:42:25;2.40;;;1.40;;
8791;SDS011;4432;50.890;4.744;2023-03-23T15:45:05;2.70;;;1.37;;
8791;SDS011;4432;50.890;4.744;2023-03-23T15:50:12;2.50;;;1.47;;
8791;SDS011;4432;50.890;4.744;2023-03-23T15:52:40;5.80;;;1.87;;
8791;SDS011;4432;50.890;4.744;2023-03-23T15:55:20;3.83;;;1.17;;
8791;SDS011;4432;50.890;4.744;2023-03-23T15:57:51;2.33;;;1.60;;
8791;SDS011;4432;50.890;4.744;2023-03-23T16:00:19;4.40;;;1.70;;
8791;SDS011;4432;50.890;4.744;2023-03-23T16:02:46;3.73;;;1.60;;
8791;SDS011;4432;50.890;4.744;2023-03-23T16:05:16;2.43;;;1.27;;
8791;SDS011;4432;50.890;4.744;2023-03-23T16:07:42;1.57;;;1.47;;
8791;SDS011;4432;50.890;4.744;2023-03-23T16:10:13;3.03;;;1.37;;
8791;SDS011;4432;50.890;4.744;2023-03-23T16:12:42;3.83;;;1.53;;
8791;SDS011;4432;50.890;4.744;2023-03-23T16:15:08;2.53;;;1.67;;
8791;SDS011;4432;50.890;4.744;2023-03-23T16:17:33;2.73;;;1.50;;
8791;SDS011;4432;50.890;4.744;2023-03-23T16:19:59;4.60;;;1.70;;
8791;SDS011;4432;50.890;4.744;2023-03-23T16:22:25;4.77;;;1.70;;
8791;SDS011;4432;50.890;4.744;2023-03-23T16:24:51;4.30;;;2.00;;
8791;SDS011;4432;50.890;4.744;2023-03-23T16:27:17;3.30;;;1.40;;
8791;SDS011;4432;50.890;4.744;2023-03-23T16:29:45;1.57;;;1.43;;
8791;SDS011;4432;50.890;4.744;2023-03-23T16:32:11;2.80;;;1.47;;
8791;SDS011;4432;50.890;4.744;2023-03-23T16:34:37;2.70;;;1.50;;
8791;SDS011;4432;50.890;4.744;2023-03-23T16:37:03;1.30;;;1.20;;
8791;SDS011;4432;50.890;4.744;2023-03-23T16:39:28;3.50;;;1.43;;
8791;SDS011;4432;50.890;4.744;2023-03-23T16:41:54;1.60;;;1.50;;
8791;SDS011;4432;50.890;4.744;2023-03-23T16:44:20;3.00;;;1.63;;
8791;SDS011;4432;50.890;4.744;2023-03-23T16:46:45;3.23;;;1.70;;
8791;SDS011;4432;50.890;4.744;2023-03-23T16:49:11;4.40;;;1.60;;
8791;SDS011;4432;50.890;4.744;2023-03-23T16:51:37;4.80;;;1.43;;
8791;SDS011;4432;50.890;4.744;2023-03-23T16:54:03;4.03;;;1.60;;
8791;SDS011;4432;50.890;4.744;2023-03-23T16:56:28;2.63;;;1.47;;
8791;SDS011;4432;50.890;4.744;2023-03-23T16:58:54;5.10;;;1.30;;
8791;SDS011;4432;50.890;4.744;2023-03-23T17:01:20;4.73;;;1.70;;
8791;SDS011;4432;50.890;4.744;2023-03-23T17:03:46;5.63;;;1.57;;
8791;SDS011;4432;50.890;4.744;2023-03-23T17:06:12;4.77;;;1.77;;
8791;SDS011;4432;50.890;4.744;2023-03-23T17:08:37;4.37;;;1.30;;
8791;SDS011;4432;50.890;4.744;2023-03-23T17:11:03;6.57;;;1.70;;
8791;SDS011;4432;50.890;4.744;2023-03-23T17:13:29;5.50;;;1.50;;
8791;SDS011;4432;50.890;4.744;2023-03-23T17:15:55;2.50;;;1.33;;
8791;SDS011;4432;50.890;4.744;2023-03-23T17:18:22;3.63;;;1.30;;
8791;SDS011;4432;50.890;4.744;2023-03-23T17:20:49;7.70;;;1.60;;
8791;SDS011;4432;50.890;4.744;2023-03-23T17:23:16;3.83;;;1.43;;
8791;SDS011;4432;50.890;4.744;2023-03-23T17:25:43;3.10;;;1.73;;
8791;SDS011;4432;50.890;4.744;2023-03-23T17:28:10;2.50;;;1.50;;
8791;SDS011;4432;50.890;4.744;2023-03-23T17:30:38;4.27;;;1.63;;
8791;SDS011;4432;50.890;4.744;2023-03-23T17:33:05;5.23;;;1.47;;
8791;SDS011;4432;50.890;4.744;2023-03-23T17:35:31;3.97;;;1.47;;
8791;SDS011;4432;50.890;4.744;2023-03-23T17:37:57;3.67;;;1.60;;